sensor_id;sensor_type;location;lat;lon;timestamp;temperature;humidity
1351;DHT22;669;50.206;9.998;2022-11-15T00:01:09;7.60;83.50
1351;DHT22;669;50.206;9.998;2022-11-15T00:03:37;7.60;83.00
1351;DHT22;669;50.206;9.998;2022-11-15T00:06:05;7.50;83.10
1351;DHT22;669;50.206;9.998;2022-11-15T00:08:33;7.50;83.20
1351;DHT22;669;50.206;9.998;2022-11-15T00:11:02;7.50;82.90
1351;DHT22;669;50.206;9.998;2022-11-15T00:13:30;7.40;83.00
1351;DHT22;669;50.206;9.998;2022-11-15T00:16:01;7.40;83.90
1351;DHT22;669;50.206;9.998;2022-11-15T00:18:29;7.40;83.90
1351;DHT22;669;50.206;9.998;2022-11-15T00:21:03;7.40;83.90
1351;DHT22;669;50.206;9.998;2022-11-15T00:23:32;7.40;84.40
1351;DHT22;669;50.206;9.998;2022-11-15T00:26:00;7.40;84.40
1351;DHT22;669;50.206;9.998;2022-11-15T00:28:28;7.40;84.50
1351;DHT22;669;50.206;9.998;2022-11-15T00:31:01;7.50;84.80
1351;DHT22;669;50.206;9.998;2022-11-15T00:33:29;7.50;84.70
1351;DHT22;669;50.206;9.998;2022-11-15T00:36:02;7.50;84.70
1351;DHT22;669;50.206;9.998;2022-11-15T00:38:31;7.50;84.40
1351;DHT22;669;50.206;9.998;2022-11-15T00:41:01;7.40;85.00
1351;DHT22;669;50.206;9.998;2022-11-15T00:43:35;7.40;84.40
1351;DHT22;669;50.206;9.998;2022-11-15T00:46:04;7.40;84.50
1351;DHT22;669;50.206;9.998;2022-11-15T00:48:34;7.50;84.60
1351;DHT22;669;50.206;9.998;2022-11-15T00:51:02;7.50;84.90
1351;DHT22;669;50.206;9.998;2022-11-15T00:53:30;7.40;82.60
1351;DHT22;669;50.206;9.998;2022-11-15T00:55:59;7.40;81.80
1351;DHT22;669;50.206;9.998;2022-11-15T00:58:27;7.30;82.80
1351;DHT22;669;50.206;9.998;2022-11-15T01:00:55;7.30;84.00
1351;DHT22;669;50.206;9.998;2022-11-15T01:03:24;7.30;85.30
1351;DHT22;669;50.206;9.998;2022-11-15T01:05:52;7.40;85.50
1351;DHT22;669;50.206;9.998;2022-11-15T01:08:20;7.40;83.50
1351;DHT22;669;50.206;9.998;2022-11-15T01:10:48;7.40;82.10
1351;DHT22;669;50.206;9.998;2022-11-15T01:13:16;7.30;82.00
1351;DHT22;669;50.206;9.998;2022-11-15T01:15:44;7.30;82.10
1351;DHT22;669;50.206;9.998;2022-11-15T01:18:12;7.30;82.70
1351;DHT22;669;50.206;9.998;2022-11-15T01:20:42;7.30;82.40
1351;DHT22;669;50.206;9.998;2022-11-15T01:23:10;7.30;82.80
1351;DHT22;669;50.206;9.998;2022-11-15T01:25:38;7.20;82.80
1351;DHT22;669;50.206;9.998;2022-11-15T01:28:06;7.20;82.70
1351;DHT22;669;50.206;9.998;2022-11-15T01:30:35;7.20;82.00
1351;DHT22;669;50.206;9.998;2022-11-15T01:33:04;7.20;82.80
1351;DHT22;669;50.206;9.998;2022-11-15T01:35:31;7.20;83.30
1351;DHT22;669;50.206;9.998;2022-11-15T01:38:01;7.20;83.40
1351;DHT22;669;50.206;9.998;2022-11-15T01:40:29;7.10;83.50
1351;DHT22;669;50.206;9.998;2022-11-15T01:42:57;7.20;84.10
1351;DHT22;669;50.206;9.998;2022-11-15T01:45:25;7.20;84.40
1351;DHT22;669;50.206;9.998;2022-11-15T01:47:54;7.20;84.50
1351;DHT22;669;50.206;9.998;2022-11-15T01:50:26;7.20;83.90
1351;DHT22;669;50.206;9.998;2022-11-15T01:52:56;7.10;83.40
1351;DHT22;669;50.206;9.998;2022-11-15T01:55:27;7.10;83.20
1351;DHT22;669;50.206;9.998;2022-11-15T01:57:58;7.00;83.40
1351;DHT22;669;50.206;9.998;2022-11-15T02:00:27;7.00;83.60
1351;DHT22;669;50.206;9.998;2022-11-15T02:02:55;7.00;82.70
1351;DHT22;669;50.206;9.998;2022-11-15T02:05:24;6.90;82.20
1351;DHT22;669;50.206;9.998;2022-11-15T02:07:52;6.80;82.30
1351;DHT22;669;50.206;9.998;2022-11-15T02:10:21;6.80;82.60
1351;DHT22;669;50.206;9.998;2022-11-15T02:12:52;6.70;83.50
1351;DHT22;669;50.206;9.998;2022-11-15T02:15:21;6.70;84.10
1351;DHT22;669;50.206;9.998;2022-11-15T02:17:58;6.70;84.40
1351;DHT22;669;50.206;9.998;2022-11-15T02:20:46;6.70;82.90
1351;DHT22;669;50.206;9.998;2022-11-15T02:32:40;6.50;83.20
1351;DHT22;669;50.206;9.998;2022-11-15T02:35:19;6.50;80.80
1351;DHT22;669;50.206;9.998;2022-11-15T02:37:55;6.40;82.00
1351;DHT22;669;50.206;9.998;2022-11-15T02:40:30;6.40;83.80
1351;DHT22;669;50.206;9.998;2022-11-15T02:43:08;6.50;84.40
1351;DHT22;669;50.206;9.998;2022-11-15T02:46:01;6.50;84.70
1351;DHT22;669;50.206;9.998;2022-11-15T02:48:33;6.50;85.00
1351;DHT22;669;50.206;9.998;2022-11-15T02:51:02;6.60;84.80
1351;DHT22;669;50.206;9.998;2022-11-15T02:53:30;6.50;82.80
1351;DHT22;669;50.206;9.998;2022-11-15T02:55:59;6.40;81.20
1351;DHT22;669;50.206;9.998;2022-11-15T02:58:42;6.30;81.20
1351;DHT22;669;50.206;9.998;2022-11-15T03:01:24;6.20;81.40
1351;DHT22;669;50.206;9.998;2022-11-15T03:04:04;6.20;81.10
1351;DHT22;669;50.206;9.998;2022-11-15T03:06:39;6.10;82.50
1351;DHT22;669;50.206;9.998;2022-11-15T03:09:13;6.10;82.60
1351;DHT22;669;50.206;9.998;2022-11-15T03:11:48;6.10;82.40
1351;DHT22;669;50.206;9.998;2022-11-15T03:14:22;6.00;82.90
1351;DHT22;669;50.206;9.998;2022-11-15T03:16:56;6.10;83.40
1351;DHT22;669;50.206;9.998;2022-11-15T03:19:30;6.00;83.10
1351;DHT22;669;50.206;9.998;2022-11-15T03:22:02;6.00;83.90
1351;DHT22;669;50.206;9.998;2022-11-15T03:24:31;6.00;83.80
1351;DHT22;669;50.206;9.998;2022-11-15T03:27:02;6.10;84.60
1351;DHT22;669;50.206;9.998;2022-11-15T03:29:33;6.00;83.60
1351;DHT22;669;50.206;9.998;2022-11-15T03:32:07;6.00;81.80
1351;DHT22;669;50.206;9.998;2022-11-15T03:34:41;5.80;79.80
1351;DHT22;669;50.206;9.998;2022-11-15T03:37:14;5.60;77.00
1351;DHT22;669;50.206;9.998;2022-11-15T03:39:42;5.50;78.40
1351;DHT22;669;50.206;9.998;2022-11-15T03:42:20;5.40;79.90
1351;DHT22;669;50.206;9.998;2022-11-15T03:44:54;5.40;80.30
1351;DHT22;669;50.206;9.998;2022-11-15T03:47:28;5.40;82.40
1351;DHT22;669;50.206;9.998;2022-11-15T03:50:02;5.40;83.00
1351;DHT22;669;50.206;9.998;2022-11-15T03:52:32;5.50;83.40
1351;DHT22;669;50.206;9.998;2022-11-15T03:55:02;5.50;83.00
1351;DHT22;669;50.206;9.998;2022-11-15T03:57:31;5.50;82.20
1351;DHT22;669;50.206;9.998;2022-11-15T03:59:59;5.50;80.40
1351;DHT22;669;50.206;9.998;2022-11-15T04:02:27;5.20;75.50
1351;DHT22;669;50.206;9.998;2022-11-15T04:04:55;5.10;78.00
1351;DHT22;669;50.206;9.998;2022-11-15T04:07:24;4.90;78.20
1351;DHT22;669;50.206;9.998;2022-11-15T04:09:52;4.90;79.00
1351;DHT22;669;50.206;9.998;2022-11-15T04:12:29;4.90;83.00
1351;DHT22;669;50.206;9.998;2022-11-15T04:15:02;5.00;84.00
1351;DHT22;669;50.206;9.998;2022-11-15T04:17:39;5.00;83.20
1351;DHT22;669;50.206;9.998;2022-11-15T04:20:09;5.00;82.90
1351;DHT22;669;50.206;9.998;2022-11-15T04:22:58;4.90;80.10
1351;DHT22;669;50.206;9.998;2022-11-15T04:25:44;4.80;77.20
1351;DHT22;669;50.206;9.998;2022-11-15T04:28:12;4.60;77.50
1351;DHT22;669;50.206;9.998;2022-11-15T04:30:40;4.60;78.50
1351;DHT22;669;50.206;9.998;2022-11-15T04:33:08;4.50;78.20
1351;DHT22;669;50.206;9.998;2022-11-15T04:35:36;4.40;79.10
1351;DHT22;669;50.206;9.998;2022-11-15T04:38:07;4.40;79.40
1351;DHT22;669;50.206;9.998;2022-11-15T04:40:34;4.30;79.30
1351;DHT22;669;50.206;9.998;2022-11-15T04:43:03;4.40;80.90
1351;DHT22;669;50.206;9.998;2022-11-15T04:45:31;4.40;82.20
1351;DHT22;669;50.206;9.998;2022-11-15T04:47:59;4.50;83.00
1351;DHT22;669;50.206;9.998;2022-11-15T04:50:27;4.60;82.90
1351;DHT22;669;50.206;9.998;2022-11-15T04:52:55;4.60;83.70
1351;DHT22;669;50.206;9.998;2022-11-15T04:55:24;4.70;84.10
1351;DHT22;669;50.206;9.998;2022-11-15T04:57:59;4.80;82.90
1351;DHT22;669;50.206;9.998;2022-11-15T05:00:28;4.70;79.70
1351;DHT22;669;50.206;9.998;2022-11-15T05:02:57;4.60;79.20
1351;DHT22;669;50.206;9.998;2022-11-15T05:05:42;4.50;79.50
1351;DHT22;669;50.206;9.998;2022-11-15T05:08:10;4.50;81.20
1351;DHT22;669;50.206;9.998;2022-11-15T05:10:39;4.50;79.50
1351;DHT22;669;50.206;9.998;2022-11-15T05:13:07;4.40;79.40
1351;DHT22;669;50.206;9.998;2022-11-15T05:15:35;4.30;78.50
1351;DHT22;669;50.206;9.998;2022-11-15T05:18:03;4.30;79.30
1351;DHT22;669;50.206;9.998;2022-11-15T05:20:31;4.20;77.00
1351;DHT22;669;50.206;9.998;2022-11-15T05:22:59;4.20;79.10
1351;DHT22;669;50.206;9.998;2022-11-15T05:25:27;4.20;79.80
1351;DHT22;669;50.206;9.998;2022-11-15T05:27:57;4.20;81.40
1351;DHT22;669;50.206;9.998;2022-11-15T05:30:24;4.30;82.70
1351;DHT22;669;50.206;9.998;2022-11-15T05:32:53;4.40;83.40
1351;DHT22;669;50.206;9.998;2022-11-15T05:35:25;4.50;84.10
1351;DHT22;669;50.206;9.998;2022-11-15T05:37:54;4.60;84.10
1351;DHT22;669;50.206;9.998;2022-11-15T05:40:23;4.60;83.40
1351;DHT22;669;50.206;9.998;2022-11-15T05:42:51;4.70;83.50
1351;DHT22;669;50.206;9.998;2022-11-15T05:45:21;4.70;83.50
1351;DHT22;669;50.206;9.998;2022-11-15T05:47:54;4.70;81.40
1351;DHT22;669;50.206;9.998;2022-11-15T05:50:23;4.60;78.70
1351;DHT22;669;50.206;9.998;2022-11-15T05:52:51;4.50;79.50
1351;DHT22;669;50.206;9.998;2022-11-15T05:55:19;4.40;80.10
1351;DHT22;669;50.206;9.998;2022-11-15T05:57:47;4.40;79.40
1351;DHT22;669;50.206;9.998;2022-11-15T06:00:16;4.30;79.40
1351;DHT22;669;50.206;9.998;2022-11-15T06:02:45;4.20;79.80
1351;DHT22;669;50.206;9.998;2022-11-15T06:05:13;4.30;81.60
1351;DHT22;669;50.206;9.998;2022-11-15T06:07:41;4.30;81.80
1351;DHT22;669;50.206;9.998;2022-11-15T06:10:10;4.30;81.70
1351;DHT22;669;50.206;9.998;2022-11-15T06:12:39;4.30;82.10
1351;DHT22;669;50.206;9.998;2022-11-15T06:15:08;4.40;82.30
1351;DHT22;669;50.206;9.998;2022-11-15T06:17:36;4.30;82.00
1351;DHT22;669;50.206;9.998;2022-11-15T06:20:06;4.40;83.20
1351;DHT22;669;50.206;9.998;2022-11-15T06:22:34;4.50;82.00
1351;DHT22;669;50.206;9.998;2022-11-15T06:25:02;4.40;79.90
1351;DHT22;669;50.206;9.998;2022-11-15T06:27:31;4.40;80.70
1351;DHT22;669;50.206;9.998;2022-11-15T06:29:59;4.30;80.50
1351;DHT22;669;50.206;9.998;2022-11-15T06:32:29;4.40;81.90
1351;DHT22;669;50.206;9.998;2022-11-15T06:34:57;4.40;81.70
1351;DHT22;669;50.206;9.998;2022-11-15T06:37:26;4.40;80.20
1351;DHT22;669;50.206;9.998;2022-11-15T06:39:54;4.50;82.60
1351;DHT22;669;50.206;9.998;2022-11-15T06:42:22;4.60;83.80
1351;DHT22;669;50.206;9.998;2022-11-15T06:44:50;4.70;83.80
1351;DHT22;669;50.206;9.998;2022-11-15T06:47:18;4.80;84.10
1351;DHT22;669;50.206;9.998;2022-11-15T06:49:45;4.90;83.90
1351;DHT22;669;50.206;9.998;2022-11-15T06:52:13;5.00;84.00
1351;DHT22;669;50.206;9.998;2022-11-15T06:54:43;5.00;83.80
1351;DHT22;669;50.206;9.998;2022-11-15T06:57:11;5.10;84.30
1351;DHT22;669;50.206;9.998;2022-11-15T06:59:39;5.20;84.40
1351;DHT22;669;50.206;9.998;2022-11-15T07:02:11;5.30;83.80
1351;DHT22;669;50.206;9.998;2022-11-15T07:04:39;5.30;81.80
1351;DHT22;669;50.206;9.998;2022-11-15T07:07:08;5.30;81.90
1351;DHT22;669;50.206;9.998;2022-11-15T07:09:36;5.30;81.30
1351;DHT22;669;50.206;9.998;2022-11-15T07:12:06;5.40;81.90
1351;DHT22;669;50.206;9.998;2022-11-15T07:14:34;5.60;83.00
1351;DHT22;669;50.206;9.998;2022-11-15T07:17:03;5.90;82.30
1351;DHT22;669;50.206;9.998;2022-11-15T07:19:31;6.30;82.20
1351;DHT22;669;50.206;9.998;2022-11-15T07:21:59;6.60;80.90
1351;DHT22;669;50.206;9.998;2022-11-15T07:24:27;6.80;77.70
1351;DHT22;669;50.206;9.998;2022-11-15T07:26:55;7.20;77.30
1351;DHT22;669;50.206;9.998;2022-11-15T07:29:25;7.60;75.40
1351;DHT22;669;50.206;9.998;2022-11-15T07:31:53;7.90;73.20
1351;DHT22;669;50.206;9.998;2022-11-15T07:34:21;8.20;66.40
1351;DHT22;669;50.206;9.998;2022-11-15T07:36:50;8.50;66.40
1351;DHT22;669;50.206;9.998;2022-11-15T07:39:18;8.70;67.50
1351;DHT22;669;50.206;9.998;2022-11-15T07:41:46;9.00;65.10
1351;DHT22;669;50.206;9.998;2022-11-15T07:44:16;9.20;64.90
1351;DHT22;669;50.206;9.998;2022-11-15T07:46:45;9.40;63.00
1351;DHT22;669;50.206;9.998;2022-11-15T07:49:13;9.60;61.30
1351;DHT22;669;50.206;9.998;2022-11-15T07:51:41;9.60;60.00
1351;DHT22;669;50.206;9.998;2022-11-15T07:54:08;9.80;61.70
1351;DHT22;669;50.206;9.998;2022-11-15T07:56:36;9.70;61.20
1351;DHT22;669;50.206;9.998;2022-11-15T07:59:05;9.80;61.50
1351;DHT22;669;50.206;9.998;2022-11-15T08:01:33;9.90;60.60
1351;DHT22;669;50.206;9.998;2022-11-15T08:04:03;9.90;60.20
1351;DHT22;669;50.206;9.998;2022-11-15T08:06:31;9.90;60.20
1351;DHT22;669;50.206;9.998;2022-11-15T08:08:59;9.80;60.50
1351;DHT22;669;50.206;9.998;2022-11-15T08:11:27;9.80;61.70
1351;DHT22;669;50.206;9.998;2022-11-15T08:13:55;9.80;61.60
1351;DHT22;669;50.206;9.998;2022-11-15T08:16:23;9.50;61.60
1351;DHT22;669;50.206;9.998;2022-11-15T08:18:51;9.20;62.40
1351;DHT22;669;50.206;9.998;2022-11-15T08:21:21;9.00;64.30
1351;DHT22;669;50.206;9.998;2022-11-15T08:23:50;8.90;64.50
1351;DHT22;669;50.206;9.998;2022-11-15T08:26:18;8.80;64.90
1351;DHT22;669;50.206;9.998;2022-11-15T08:28:46;8.80;64.20
1351;DHT22;669;50.206;9.998;2022-11-15T08:31:15;8.80;67.30
1351;DHT22;669;50.206;9.998;2022-11-15T08:33:44;8.90;68.40
1351;DHT22;669;50.206;9.998;2022-11-15T08:36:14;9.00;69.30
1351;DHT22;669;50.206;9.998;2022-11-15T08:38:44;9.00;69.40
1351;DHT22;669;50.206;9.998;2022-11-15T08:41:18;9.10;69.70
1351;DHT22;669;50.206;9.998;2022-11-15T08:43:49;9.10;70.20
1351;DHT22;669;50.206;9.998;2022-11-15T08:46:17;9.10;70.20
1351;DHT22;669;50.206;9.998;2022-11-15T08:48:45;9.20;70.50
1351;DHT22;669;50.206;9.998;2022-11-15T08:51:13;9.20;69.40
1351;DHT22;669;50.206;9.998;2022-11-15T08:53:42;9.20;69.50
1351;DHT22;669;50.206;9.998;2022-11-15T08:56:13;9.30;69.00
1351;DHT22;669;50.206;9.998;2022-11-15T08:58:41;9.40;69.70
1351;DHT22;669;50.206;9.998;2022-11-15T09:01:16;9.40;67.00
1351;DHT22;669;50.206;9.998;2022-11-15T09:03:44;9.50;65.40
1351;DHT22;669;50.206;9.998;2022-11-15T09:06:13;9.60;65.10
1351;DHT22;669;50.206;9.998;2022-11-15T09:08:41;9.60;65.30
1351;DHT22;669;50.206;9.998;2022-11-15T09:11:15;9.80;66.60
1351;DHT22;669;50.206;9.998;2022-11-15T09:13:47;9.90;65.90
1351;DHT22;669;50.206;9.998;2022-11-15T09:16:15;10.10;63.20
1351;DHT22;669;50.206;9.998;2022-11-15T09:18:42;10.20;63.00
1351;DHT22;669;50.206;9.998;2022-11-15T09:21:11;10.30;61.70
1351;DHT22;669;50.206;9.998;2022-11-15T09:23:39;10.40;61.40
1351;DHT22;669;50.206;9.998;2022-11-15T09:26:07;10.50;60.20
1351;DHT22;669;50.206;9.998;2022-11-15T09:28:37;10.70;59.40
1351;DHT22;669;50.206;9.998;2022-11-15T09:31:08;10.70;58.80
1351;DHT22;669;50.206;9.998;2022-11-15T09:33:37;10.80;59.00
1351;DHT22;669;50.206;9.998;2022-11-15T09:36:07;11.00;58.80
1351;DHT22;669;50.206;9.998;2022-11-15T09:38:35;11.10;58.40
1351;DHT22;669;50.206;9.998;2022-11-15T09:44:49;11.40;57.50
1351;DHT22;669;50.206;9.998;2022-11-15T09:50:27;11.70;56.40
1351;DHT22;669;50.206;9.998;2022-11-15T09:52:56;11.90;56.60
1351;DHT22;669;50.206;9.998;2022-11-15T09:55:34;12.00;55.80
1351;DHT22;669;50.206;9.998;2022-11-15T09:58:10;12.20;55.40
1351;DHT22;669;50.206;9.998;2022-11-15T10:00:47;12.40;54.60
1351;DHT22;669;50.206;9.998;2022-11-15T10:03:25;12.60;53.50
1351;DHT22;669;50.206;9.998;2022-11-15T10:05:56;12.80;53.10
1351;DHT22;669;50.206;9.998;2022-11-15T10:08:31;13.00;53.70
1351;DHT22;669;50.206;9.998;2022-11-15T10:11:05;13.20;53.20
1351;DHT22;669;50.206;9.998;2022-11-15T10:13:56;13.30;51.80
1351;DHT22;669;50.206;9.998;2022-11-15T10:19:38;13.40;49.10
1351;DHT22;669;50.206;9.998;2022-11-15T10:22:25;13.30;48.60
1351;DHT22;669;50.206;9.998;2022-11-15T10:25:14;13.30;48.60
1351;DHT22;669;50.206;9.998;2022-11-15T10:27:45;13.40;48.70
1351;DHT22;669;50.206;9.998;2022-11-15T10:30:16;13.50;49.10
1351;DHT22;669;50.206;9.998;2022-11-15T10:32:46;13.60;48.90
1351;DHT22;669;50.206;9.998;2022-11-15T10:35:20;13.70;50.70
1351;DHT22;669;50.206;9.998;2022-11-15T10:37:48;13.80;50.20
1351;DHT22;669;50.206;9.998;2022-11-15T10:40:21;13.90;48.50
1351;DHT22;669;50.206;9.998;2022-11-15T10:43:05;13.90;48.20
1351;DHT22;669;50.206;9.998;2022-11-15T10:45:34;14.00;50.10
1351;DHT22;669;50.206;9.998;2022-11-15T10:48:20;14.00;48.60
1351;DHT22;669;50.206;9.998;2022-11-15T10:50:52;14.10;49.40
1351;DHT22;669;50.206;9.998;2022-11-15T10:53:29;14.40;49.30
1351;DHT22;669;50.206;9.998;2022-11-15T10:56:02;14.60;49.10
1351;DHT22;669;50.206;9.998;2022-11-15T10:58:37;14.70;46.90
1351;DHT22;669;50.206;9.998;2022-11-15T11:01:11;14.70;47.00
1351;DHT22;669;50.206;9.998;2022-11-15T11:03:41;14.40;48.40
1351;DHT22;669;50.206;9.998;2022-11-15T11:06:13;14.10;48.10
1351;DHT22;669;50.206;9.998;2022-11-15T11:08:54;13.90;47.70
1351;DHT22;669;50.206;9.998;2022-11-15T11:11:22;13.60;48.10
1351;DHT22;669;50.206;9.998;2022-11-15T11:13:50;13.40;48.80
1351;DHT22;669;50.206;9.998;2022-11-15T11:16:40;13.20;49.70
1351;DHT22;669;50.206;9.998;2022-11-15T11:19:28;13.10;49.70
1351;DHT22;669;50.206;9.998;2022-11-15T11:22:05;12.90;51.00
1351;DHT22;669;50.206;9.998;2022-11-15T11:24:40;12.80;50.80
1351;DHT22;669;50.206;9.998;2022-11-15T11:27:25;12.70;51.30
1351;DHT22;669;50.206;9.998;2022-11-15T11:30:03;12.50;51.70
1351;DHT22;669;50.206;9.998;2022-11-15T11:32:43;12.50;52.70
1351;DHT22;669;50.206;9.998;2022-11-15T11:35:24;12.50;53.40
1351;DHT22;669;50.206;9.998;2022-11-15T11:38:05;12.50;52.50
1351;DHT22;669;50.206;9.998;2022-11-15T11:40:57;12.50;52.50
1351;DHT22;669;50.206;9.998;2022-11-15T11:43:33;12.40;52.50
1351;DHT22;669;50.206;9.998;2022-11-15T11:49:01;12.40;53.40
1351;DHT22;669;50.206;9.998;2022-11-15T11:51:34;12.50;54.10
1351;DHT22;669;50.206;9.998;2022-11-15T11:54:12;12.60;54.20
1351;DHT22;669;50.206;9.998;2022-11-15T11:56:43;12.60;53.30
1351;DHT22;669;50.206;9.998;2022-11-15T11:59:21;12.70;52.70
1351;DHT22;669;50.206;9.998;2022-11-15T12:01:51;12.70;53.20
1351;DHT22;669;50.206;9.998;2022-11-15T12:04:21;12.70;52.70
1351;DHT22;669;50.206;9.998;2022-11-15T12:06:54;12.80;52.80
1351;DHT22;669;50.206;9.998;2022-11-15T12:09:30;12.70;52.70
1351;DHT22;669;50.206;9.998;2022-11-15T12:12:05;12.70;52.50
1351;DHT22;669;50.206;9.998;2022-11-15T12:14:39;12.60;52.10
1351;DHT22;669;50.206;9.998;2022-11-15T12:17:09;12.60;51.60
1351;DHT22;669;50.206;9.998;2022-11-15T12:19:37;12.50;52.50
1351;DHT22;669;50.206;9.998;2022-11-15T12:22:10;12.50;52.50
1351;DHT22;669;50.206;9.998;2022-11-15T12:24:43;12.50;53.10
1351;DHT22;669;50.206;9.998;2022-11-15T12:27:17;12.50;53.40
1351;DHT22;669;50.206;9.998;2022-11-15T12:29:55;12.50;53.20
1351;DHT22;669;50.206;9.998;2022-11-15T12:32:28;12.40;53.70
1351;DHT22;669;50.206;9.998;2022-11-15T12:34:58;12.50;54.10
1351;DHT22;669;50.206;9.998;2022-11-15T12:40:24;12.40;53.40
1351;DHT22;669;50.206;9.998;2022-11-15T12:46:10;12.40;52.50
1351;DHT22;669;50.206;9.998;2022-11-15T12:48:57;12.40;52.50
1351;DHT22;669;50.206;9.998;2022-11-15T12:54:52;12.40;54.80
1351;DHT22;669;50.206;9.998;2022-11-15T12:57:35;12.40;55.00
1351;DHT22;669;50.206;9.998;2022-11-15T13:03:23;12.40;55.40
1351;DHT22;669;50.206;9.998;2022-11-15T13:08:58;12.50;53.20
1351;DHT22;669;50.206;9.998;2022-11-15T13:11:45;12.40;52.50
1351;DHT22;669;50.206;9.998;2022-11-15T13:14:41;12.30;52.50
1351;DHT22;669;50.206;9.998;2022-11-15T13:17:28;12.10;53.10
1351;DHT22;669;50.206;9.998;2022-11-15T13:23:00;12.00;53.90
1351;DHT22;669;50.206;9.998;2022-11-15T13:28:39;11.90;54.00
1351;DHT22;669;50.206;9.998;2022-11-15T13:31:26;11.90;54.40
1351;DHT22;669;50.206;9.998;2022-11-15T13:33:59;11.80;54.20
1351;DHT22;669;50.206;9.998;2022-11-15T13:36:29;11.90;55.90
1351;DHT22;669;50.206;9.998;2022-11-15T13:39:02;11.90;56.60
1351;DHT22;669;50.206;9.998;2022-11-15T13:41:31;11.90;55.70
1351;DHT22;669;50.206;9.998;2022-11-15T13:44:00;11.90;55.80
1351;DHT22;669;50.206;9.998;2022-11-15T13:46:31;11.90;57.10
1351;DHT22;669;50.206;9.998;2022-11-15T13:49:01;11.80;55.90
1351;DHT22;669;50.206;9.998;2022-11-15T13:51:36;11.80;55.90
1351;DHT22;669;50.206;9.998;2022-11-15T13:54:14;11.80;56.50
1351;DHT22;669;50.206;9.998;2022-11-15T13:56:46;11.90;56.60
1351;DHT22;669;50.206;9.998;2022-11-15T13:59:25;11.90;55.60
1351;DHT22;669;50.206;9.998;2022-11-15T14:01:56;11.90;55.90
1351;DHT22;669;50.206;9.998;2022-11-15T14:04:27;11.90;55.50
1351;DHT22;669;50.206;9.998;2022-11-15T14:06:57;11.90;56.10
1351;DHT22;669;50.206;9.998;2022-11-15T14:09:35;12.00;56.50
1351;DHT22;669;50.206;9.998;2022-11-15T14:12:22;11.90;56.60
1351;DHT22;669;50.206;9.998;2022-11-15T14:14:51;11.90;56.60
1351;DHT22;669;50.206;9.998;2022-11-15T14:17:32;11.80;56.90
1351;DHT22;669;50.206;9.998;2022-11-15T14:20:01;11.80;56.60
1351;DHT22;669;50.206;9.998;2022-11-15T14:22:30;11.80;56.80
1351;DHT22;669;50.206;9.998;2022-11-15T14:25:18;11.80;57.20
1351;DHT22;669;50.206;9.998;2022-11-15T14:28:08;11.80;56.50
1351;DHT22;669;50.206;9.998;2022-11-15T14:30:37;11.80;57.20
1351;DHT22;669;50.206;9.998;2022-11-15T14:33:19;11.80;56.50
1351;DHT22;669;50.206;9.998;2022-11-15T14:35:48;11.80;56.70
1351;DHT22;669;50.206;9.998;2022-11-15T14:38:16;11.80;56.80
1351;DHT22;669;50.206;9.998;2022-11-15T14:40:44;11.80;57.20
1351;DHT22;669;50.206;9.998;2022-11-15T14:43:13;11.80;57.30
1351;DHT22;669;50.206;9.998;2022-11-15T14:45:41;11.70;58.00
1351;DHT22;669;50.206;9.998;2022-11-15T14:48:09;11.70;58.00
1351;DHT22;669;50.206;9.998;2022-11-15T14:50:38;11.60;58.00
1351;DHT22;669;50.206;9.998;2022-11-15T14:53:06;11.60;59.00
1351;DHT22;669;50.206;9.998;2022-11-15T14:55:35;11.50;59.80
1351;DHT22;669;50.206;9.998;2022-11-15T14:58:04;11.50;59.70
1351;DHT22;669;50.206;9.998;2022-11-15T15:00:34;11.40;59.70
1351;DHT22;669;50.206;9.998;2022-11-15T15:03:04;11.40;59.80
1351;DHT22;669;50.206;9.998;2022-11-15T15:05:34;11.30;60.40
1351;DHT22;669;50.206;9.998;2022-11-15T15:08:03;11.20;60.50
1351;DHT22;669;50.206;9.998;2022-11-15T15:10:34;11.20;61.10
1351;DHT22;669;50.206;9.998;2022-11-15T15:13:14;11.10;61.40
1351;DHT22;669;50.206;9.998;2022-11-15T15:15:42;11.10;62.00
1351;DHT22;669;50.206;9.998;2022-11-15T15:18:10;11.00;62.30
1351;DHT22;669;50.206;9.998;2022-11-15T15:20:39;10.90;62.50
1351;DHT22;669;50.206;9.998;2022-11-15T15:23:15;10.90;62.80
1351;DHT22;669;50.206;9.998;2022-11-15T15:25:43;10.80;63.40
1351;DHT22;669;50.206;9.998;2022-11-15T15:28:13;10.70;63.50
1351;DHT22;669;50.206;9.998;2022-11-15T15:30:41;10.70;63.70
1351;DHT22;669;50.206;9.998;2022-11-15T15:33:09;10.60;64.20
1351;DHT22;669;50.206;9.998;2022-11-15T15:35:37;10.50;64.30
1351;DHT22;669;50.206;9.998;2022-11-15T15:38:05;10.50;64.70
1351;DHT22;669;50.206;9.998;2022-11-15T15:40:34;10.40;64.70
1351;DHT22;669;50.206;9.998;2022-11-15T15:43:02;10.30;65.10
1351;DHT22;669;50.206;9.998;2022-11-15T15:45:31;10.20;65.70
1351;DHT22;669;50.206;9.998;2022-11-15T15:47:59;10.20;66.10
1351;DHT22;669;50.206;9.998;2022-11-15T15:50:29;10.10;66.20
1351;DHT22;669;50.206;9.998;2022-11-15T15:52:58;10.10;66.40
1351;DHT22;669;50.206;9.998;2022-11-15T15:55:28;10.00;66.50
1351;DHT22;669;50.206;9.998;2022-11-15T15:57:57;9.90;68.00
1351;DHT22;669;50.206;9.998;2022-11-15T16:00:25;9.80;68.70
1351;DHT22;669;50.206;9.998;2022-11-15T16:02:53;9.80;69.40
1351;DHT22;669;50.206;9.998;2022-11-15T16:05:22;9.70;69.60
1351;DHT22;669;50.206;9.998;2022-11-15T16:07:50;9.80;70.00
1351;DHT22;669;50.206;9.998;2022-11-15T16:10:22;9.70;69.90
1351;DHT22;669;50.206;9.998;2022-11-15T16:12:51;9.70;70.40
1351;DHT22;669;50.206;9.998;2022-11-15T16:15:22;9.70;70.50
1351;DHT22;669;50.206;9.998;2022-11-15T16:17:52;9.70;70.00
1351;DHT22;669;50.206;9.998;2022-11-15T16:20:29;9.70;69.10
1351;DHT22;669;50.206;9.998;2022-11-15T16:22:57;9.50;69.40
1351;DHT22;669;50.206;9.998;2022-11-15T16:25:37;9.50;69.80
1351;DHT22;669;50.206;9.998;2022-11-15T16:28:07;9.40;70.40
1351;DHT22;669;50.206;9.998;2022-11-15T16:30:41;9.30;71.00
1351;DHT22;669;50.206;9.998;2022-11-15T16:33:09;9.30;71.40
1351;DHT22;669;50.206;9.998;2022-11-15T16:35:36;9.20;71.60
1351;DHT22;669;50.206;9.998;2022-11-15T16:38:04;9.20;71.60
1351;DHT22;669;50.206;9.998;2022-11-15T16:40:33;9.20;71.60
1351;DHT22;669;50.206;9.998;2022-11-15T16:43:01;9.10;72.10
1351;DHT22;669;50.206;9.998;2022-11-15T16:45:33;9.10;72.30
1351;DHT22;669;50.206;9.998;2022-11-15T16:48:03;9.10;72.40
1351;DHT22;669;50.206;9.998;2022-11-15T16:50:33;9.10;72.60
1351;DHT22;669;50.206;9.998;2022-11-15T16:53:06;9.00;72.90
1351;DHT22;669;50.206;9.998;2022-11-15T16:55:34;8.90;73.50
1351;DHT22;669;50.206;9.998;2022-11-15T16:58:02;8.90;73.60
1351;DHT22;669;50.206;9.998;2022-11-15T17:00:30;8.90;74.10
1351;DHT22;669;50.206;9.998;2022-11-15T17:02:58;8.90;74.50
1351;DHT22;669;50.206;9.998;2022-11-15T17:05:28;8.90;74.80
1351;DHT22;669;50.206;9.998;2022-11-15T17:07:56;8.90;75.00
1351;DHT22;669;50.206;9.998;2022-11-15T17:10:25;8.90;73.50
1351;DHT22;669;50.206;9.998;2022-11-15T17:12:54;8.80;74.90
1351;DHT22;669;50.206;9.998;2022-11-15T17:15:22;8.80;74.30
1351;DHT22;669;50.206;9.998;2022-11-15T17:17:51;8.80;74.90
1351;DHT22;669;50.206;9.998;2022-11-15T17:20:21;8.80;75.40
1351;DHT22;669;50.206;9.998;2022-11-15T17:22:51;8.70;73.90
1351;DHT22;669;50.206;9.998;2022-11-15T17:25:19;8.70;74.10
1351;DHT22;669;50.206;9.998;2022-11-15T17:27:47;8.60;75.20
1351;DHT22;669;50.206;9.998;2022-11-15T17:30:15;8.60;75.60
1351;DHT22;669;50.206;9.998;2022-11-15T17:32:44;8.70;76.10
1351;DHT22;669;50.206;9.998;2022-11-15T17:35:13;8.70;72.80
1351;DHT22;669;50.206;9.998;2022-11-15T17:37:41;8.50;73.30
1351;DHT22;669;50.206;9.998;2022-11-15T17:40:11;8.50;74.20